Time;durP1;ratioP1;P1;durP2;ratioP2;P2;SDS_P1;SDS_P2;PMS_P1;PMS_P2;Temp;Humidity;BMP_temperature;BMP_pressure;BME280_temperature;BME280_humidity;BME280_pressure;Samples;Min_cycle;Max_cycle;Signal;HPM_P1;HPM_P2
2023/01/04 00:01:38;;;;;;;2.03;0.70;;;11.00;99.90;;;;;;5062717;28;20179;-77
2023/01/04 00:04:04;;;;;;;2.20;0.87;;;11.00;99.90;;;;;;5097802;28;20179;-78
2023/01/04 00:06:29;;;;;;;3.43;1.00;;;11.10;99.90;;;;;;5092336;28;20655;-78
2023/01/04 00:08:55;;;;;;;3.70;0.77;;;11.10;99.90;;;;;;5101685;28;20174;-78
2023/01/04 00:11:22;;;;;;;3.50;1.03;;;11.10;99.90;;;;;;5100759;28;20179;-78
2023/01/04 00:13:50;;;;;;;3.78;0.80;;;11.20;99.90;;;;;;5106592;28;20251;-78
2023/01/04 00:16:18;;;;;;;2.40;0.82;;;11.20;99.90;;;;;;5097930;28;20248;-77
2023/01/04 00:18:45;;;;;;;3.30;0.80;;;11.30;99.90;;;;;;5107064;28;20171;-76
2023/01/04 00:21:19;;;;;;;3.25;0.60;;;11.30;99.90;;;;;;5112552;28;20172;-76
2023/01/04 00:23:47;;;;;;;4.18;0.90;;;11.40;99.90;;;;;;5110519;28;20202;-76
2023/01/04 00:26:15;;;;;;;3.53;0.90;;;11.40;99.90;;;;;;5116944;28;20234;-76
2023/01/04 00:28:42;;;;;;;2.50;0.77;;;11.40;99.90;;;;;;5111697;28;20253;-76
2023/01/04 00:31:10;;;;;;;5.82;1.20;;;11.50;99.90;;;;;;5110577;28;20261;-76
2023/01/04 00:33:36;;;;;;;6.78;0.95;;;11.50;99.90;;;;;;5111851;28;20610;-76
2023/01/04 00:36:08;;;;;;;3.45;0.80;;;11.50;99.90;;;;;;5112062;28;20723;-76
2023/01/04 00:38:34;;;;;;;3.45;1.00;;;11.50;99.90;;;;;;5110930;28;20710;-76
2023/01/04 00:41:01;;;;;;;3.90;0.80;;;11.50;99.90;;;;;;5111787;28;20179;-76
2023/01/04 00:43:27;;;;;;;2.10;1.00;;;11.50;99.90;;;;;;5110220;28;20271;-76
2023/01/04 00:45:53;;;;;;;2.63;1.13;;;11.50;99.90;;;;;;5110476;28;20175;-76
2023/01/04 00:48:19;;;;;;;5.65;0.95;;;11.60;99.90;;;;;;5112184;28;20986;-76
2023/01/04 00:50:47;;;;;;;5.40;1.10;;;11.50;99.90;;;;;;5110188;28;20175;-76
2023/01/04 00:53:13;;;;;;;2.10;0.70;;;11.60;99.90;;;;;;5109422;28;20207;-76
2023/01/04 00:55:39;;;;;;;3.63;0.80;;;11.50;99.90;;;;;;5111881;28;20190;-76
2023/01/04 00:58:06;;;;;;;2.90;0.70;;;11.50;99.90;;;;;;5111714;28;20167;-76
2023/01/04 01:00:32;;;;;;;1.98;0.80;;;11.50;99.90;;;;;;5111938;28;20175;-76
2023/01/04 01:02:58;;;;;;;3.58;0.70;;;11.50;99.90;;;;;;5112389;28;20195;-78
2023/01/04 01:05:24;;;;;;;5.70;0.80;;;11.60;99.90;;;;;;5115036;28;20908;-78
2023/01/04 01:07:49;;;;;;;5.20;0.70;;;11.60;99.90;;;;;;5111593;28;20569;-78
2023/01/04 01:10:15;;;;;;;2.47;0.90;;;11.60;99.90;;;;;;5110273;28;20168;-78
2023/01/04 01:12:41;;;;;;;3.10;0.90;;;11.60;99.90;;;;;;5111157;28;20554;-78
2023/01/04 01:15:07;;;;;;;1.90;0.80;;;11.60;99.90;;;;;;5110786;28;20174;-78
2023/01/04 01:17:33;;;;;;;2.47;0.70;;;11.50;99.90;;;;;;5127623;27;20210;-78
2023/01/04 01:19:59;;;;;;;4.18;0.90;;;11.40;99.90;;;;;;5109631;28;20186;-78
2023/01/04 01:22:26;;;;;;;6.15;0.80;;;11.30;99.90;;;;;;5109813;28;20202;-77
2023/01/04 01:24:51;;;;;;;4.18;0.90;;;11.30;99.90;;;;;;5110357;28;20186;-78
2023/01/04 01:27:17;;;;;;;3.30;0.70;;;11.10;99.90;;;;;;5111440;28;20210;-73
2023/01/04 01:29:43;;;;;;;3.60;1.30;;;11.10;99.90;;;;;;5111197;28;20167;-73
2023/01/04 01:32:09;;;;;;;3.17;0.83;;;11.00;99.90;;;;;;5111032;28;20195;-73
2023/01/04 01:34:34;;;;;;;2.90;0.80;;;10.90;99.90;;;;;;5110853;28;20186;-73
2023/01/04 01:37:01;;;;;;;3.47;0.90;;;10.90;99.90;;;;;;5110727;28;20220;-73
2023/01/04 01:39:27;;;;;;;3.88;0.77;;;10.80;99.90;;;;;;5126725;27;20174;-74
2023/01/04 01:41:54;;;;;;;2.10;0.73;;;10.70;99.90;;;;;;5114458;28;20241;-73
2023/01/04 01:44:41;;;;;;;2.22;0.88;;;10.70;99.90;;;;;;5110496;28;20751;-73
2023/01/04 01:47:25;;;;;;;2.55;0.80;;;10.70;99.90;;;;;;5110575;28;20167;-73
2023/01/04 01:49:53;;;;;;;1.40;0.70;;;10.60;99.90;;;;;;5109667;28;20202;-73
2023/01/04 01:52:28;;;;;;;5.25;0.85;;;10.60;99.90;;;;;;5108832;28;20221;-73
2023/01/04 01:55:01;;;;;;;2.22;1.10;;;10.50;99.90;;;;;;5108645;28;20170;-73
2023/01/04 01:57:32;;;;;;;5.65;0.93;;;10.50;99.90;;;;;;5110526;28;20196;-73
2023/01/04 02:00:06;;;;;;;6.03;0.80;;;10.50;99.90;;;;;;5110792;28;20175;-73
2023/01/04 02:02:56;;;;;;;3.45;0.82;;;10.40;99.90;;;;;;5090972;28;20206;-73
2023/01/04 02:05:23;;;;;;;2.65;0.90;;;10.40;99.90;;;;;;5089960;28;20570;-76
2023/01/04 02:07:49;;;;;;;3.03;0.77;;;10.30;99.90;;;;;;5088605;28;20167;-76
2023/01/04 02:10:16;;;;;;;2.20;0.60;;;10.30;99.90;;;;;;5088841;28;20170;-76
2023/01/04 02:12:43;;;;;;;2.25;0.70;;;10.30;99.90;;;;;;5088571;28;20222;-76
2023/01/04 02:15:10;;;;;;;2.47;0.70;;;10.30;99.90;;;;;;5087825;28;20266;-76
2023/01/04 02:18:04;;;;;;;3.90;1.00;;;10.30;99.90;;;;;;5107870;28;20167;-76
2023/01/04 02:20:40;;;;;;;2.30;0.95;;;10.30;99.90;;;;;;5090454;28;20175;-75
2023/01/04 02:23:23;;;;;;;2.38;0.68;;;10.40;99.90;;;;;;5087574;28;20198;-76
2023/01/04 02:26:22;;;;;;;3.90;0.80;;;10.40;99.90;;;;;;5088508;28;20246;-76
2023/01/04 02:29:33;;;;;;;2.05;0.73;;;10.50;99.90;;;;;;5088908;28;20248;-76
2023/01/04 02:32:11;;;;;;;2.63;0.70;;;10.50;99.90;;;;;;5088017;28;20194;-76
2023/01/04 02:35:11;;;;;;;1.40;0.60;;;10.60;99.90;;;;;;5088143;28;20186;-76
2023/01/04 02:37:54;;;;;;;3.58;0.60;;;10.60;99.90;;;;;;5091825;28;20179;-76
2023/01/04 02:40:44;;;;;;;2.58;0.60;;;10.70;99.90;;;;;;5089376;28;20183;-76
2023/01/04 02:46:12;;;;;;;1.45;0.60;;;10.80;99.90;;;;;;5089674;28;20252;-76
2023/01/04 02:51:44;;;;;;;3.25;0.65;;;10.80;99.90;;;;;;5106455;28;20730;-75
2023/01/04 02:54:24;;;;;;;1.40;0.70;;;10.80;99.90;;;;;;5089742;28;20170;-75
2023/01/04 02:57:21;;;;;;;3.42;0.60;;;10.80;99.90;;;;;;5091451;28;20175;-76
2023/01/04 03:00:15;;;;;;;2.60;0.70;;;10.80;99.90;;;;;;5089360;28;20193;-76
2023/01/04 03:06:14;;;;;;;1.75;0.50;;;10.90;99.90;;;;;;5088023;28;20160;-75
2023/01/04 03:09:01;;;;;;;2.15;0.63;;;10.90;99.90;;;;;;5071075;28;20175;-76
2023/01/04 03:14:29;;;;;;;1.50;0.70;;;11.00;99.90;;;;;;5087088;28;20176;-75
2023/01/04 03:16:55;;;;;;;3.25;0.70;;;11.00;99.90;;;;;;5088071;28;20172;-76
2023/01/04 03:19:50;;;;;;;1.70;0.70;;;11.00;99.90;;;;;;5089265;28;20160;-76
2023/01/04 03:36:21;;;;;;;1.77;0.60;;;11.20;99.90;;;;;;5088649;28;20180;-77
2023/01/04 03:48:29;;;;;;;1.20;0.50;;;11.30;99.90;;;;;;5088600;28;20316;-76
2023/01/04 03:51:15;;;;;;;1.30;0.60;;;11.30;99.90;;;;;;5088849;28;20549;-76
2023/01/04 03:54:07;;;;;;;2.38;0.55;;;11.30;99.90;;;;;;5088053;28;20515;-76
2023/01/04 03:56:36;;;;;;;1.30;0.50;;;11.40;99.90;;;;;;5089104;28;20187;-76
2023/01/04 03:59:03;;;;;;;1.65;0.45;;;11.40;99.90;;;;;;5088675;28;20180;-76
2023/01/04 04:01:29;;;;;;;1.58;0.40;;;11.40;99.90;;;;;;5088931;28;20547;-76
2023/01/04 04:09:24;;;;;;;2.15;0.45;;;11.50;99.90;;;;;;5091508;28;20235;-76
2023/01/04 04:11:50;;;;;;;1.40;0.40;;;11.50;99.90;;;;;;5089152;28;20195;-76
2023/01/04 04:14:15;;;;;;;1.37;0.40;;;11.50;99.90;;;;;;5087004;28;20167;-77
2023/01/04 04:16:41;;;;;;;1.10;0.40;;;11.60;99.90;;;;;;5087415;28;20206;-76
2023/01/04 04:19:07;;;;;;;1.27;0.50;;;11.60;99.90;;;;;;5088258;28;20300;-76
2023/01/04 04:21:32;;;;;;;1.10;0.40;;;11.60;99.90;;;;;;5087078;28;20225;-76
2023/01/04 04:23:58;;;;;;;2.43;0.50;;;11.60;99.90;;;;;;5086791;28;20291;-76
2023/01/04 04:26:24;;;;;;;1.80;1.63;;;11.60;99.90;;;;;;5090429;28;20203;-78
2023/01/04 04:28:50;;;;;;;2.07;0.50;;;11.60;99.90;;;;;;5091129;28;20638;-78
2023/01/04 04:31:16;;;;;;;1.43;0.50;;;11.60;99.90;;;;;;5091805;28;20710;-77
2023/01/04 04:33:41;;;;;;;1.10;0.40;;;11.60;99.90;;;;;;5090312;28;20681;-78
2023/01/04 04:36:08;;;;;;;2.03;0.70;;;11.60;99.90;;;;;;5091890;28;20225;-77
2023/01/04 04:38:34;;;;;;;1.15;0.47;;;11.50;99.90;;;;;;5090837;28;20183;-77
2023/01/04 04:43:53;;;;;;;1.20;0.40;;;11.50;99.90;;;;;;5090295;28;20339;-77
2023/01/04 04:46:18;;;;;;;1.30;0.50;;;11.50;99.90;;;;;;5092354;28;20187;-78
2023/01/04 04:48:44;;;;;;;2.40;0.50;;;11.50;99.90;;;;;;5094478;28;20176;-77
2023/01/04 04:51:10;;;;;;;3.40;0.50;;;11.50;99.90;;;;;;5091907;28;20569;-78
2023/01/04 04:53:35;;;;;;;2.60;0.50;;;11.60;99.90;;;;;;5090114;28;20276;-77
2023/01/04 04:56:01;;;;;;;1.90;0.60;;;11.60;99.90;;;;;;5091124;28;20168;-78
2023/01/04 04:58:27;;;;;;;3.63;0.50;;;11.60;99.90;;;;;;5091657;28;20302;-77
2023/01/04 05:00:52;;;;;;;1.50;0.40;;;11.60;99.90;;;;;;5090941;28;20199;-78
2023/01/04 05:03:18;;;;;;;1.30;0.50;;;11.60;99.90;;;;;;5088866;28;20217;-78
2023/01/04 05:05:44;;;;;;;1.40;0.50;;;11.60;99.90;;;;;;5091911;28;20533;-78
2023/01/04 05:08:09;;;;;;;2.60;0.50;;;11.60;99.90;;;;;;5092413;28;20163;-77
2023/01/04 05:10:37;;;;;;;1.63;0.40;;;11.60;99.90;;;;;;5092782;28;20263;-77
2023/01/04 05:13:05;;;;;;;1.52;0.55;;;11.60;99.90;;;;;;5090066;28;20262;-77
2023/01/04 05:15:32;;;;;;;5.22;0.75;;;11.60;99.90;;;;;;5091098;28;20545;-77
2023/01/04 05:17:58;;;;;;;2.42;0.50;;;11.60;99.90;;;;;;5089839;28;20254;-77
2023/01/04 05:20:25;;;;;;;1.50;0.50;;;11.70;99.90;;;;;;5089947;28;20176;-77
2023/01/04 05:22:51;;;;;;;1.10;0.43;;;11.70;99.90;;;;;;5091328;28;20260;-77
2023/01/04 05:25:17;;;;;;;2.20;0.52;;;11.70;99.90;;;;;;5076829;28;20255;-77
2023/01/04 05:27:43;;;;;;;1.77;0.40;;;11.70;99.90;;;;;;5091561;28;20274;-77
2023/01/04 05:32:58;;;;;;;1.35;0.60;;;11.80;99.90;;;;;;5089404;28;20745;-77
2023/01/04 05:35:24;;;;;;;1.13;0.40;;;11.80;99.90;;;;;;5090489;28;20187;-78
2023/01/04 05:37:50;;;;;;;2.23;0.60;;;11.80;99.90;;;;;;5091249;28;20269;-77
2023/01/04 05:40:16;;;;;;;1.50;0.40;;;11.80;99.90;;;;;;5091407;28;20674;-77
2023/01/04 05:42:41;;;;;;;1.10;0.40;;;11.80;99.90;;;;;;5090380;28;20213;-77
2023/01/04 05:45:07;;;;;;;1.00;0.40;;;11.90;99.90;;;;;;5090583;28;20174;-77
2023/01/04 05:47:34;;;;;;;1.17;0.40;;;11.90;99.90;;;;;;5089630;28;20214;-77
2023/01/04 05:49:59;;;;;;;1.25;0.50;;;12.00;99.90;;;;;;5090171;28;20233;-77
2023/01/04 05:52:25;;;;;;;1.03;0.40;;;12.00;99.90;;;;;;5090397;28;20192;-77
2023/01/04 05:54:51;;;;;;;1.10;0.40;;;12.00;99.90;;;;;;5090953;28;20644;-77
2023/01/04 05:57:17;;;;;;;1.30;0.40;;;12.10;99.90;;;;;;5091498;28;20597;-77
2023/01/04 05:59:43;;;;;;;1.13;0.40;;;12.10;99.90;;;;;;5091717;28;20182;-76
2023/01/04 06:02:14;;;;;;;1.10;0.40;;;12.10;99.90;;;;;;5092309;28;20200;-77
2023/01/04 06:04:40;;;;;;;1.95;0.50;;;12.20;99.90;;;;;;5088915;28;20570;-77
2023/01/04 06:07:06;;;;;;;1.20;0.40;;;12.20;99.90;;;;;;5089488;28;20172;-77
2023/01/04 06:09:31;;;;;;;1.27;0.43;;;12.20;99.90;;;;;;5089145;28;20230;-77
2023/01/04 06:11:57;;;;;;;1.10;0.40;;;12.20;99.90;;;;;;5088912;28;20199;-77
2023/01/04 06:14:23;;;;;;;1.47;0.40;;;12.30;99.90;;;;;;5089714;28;20566;-77
2023/01/04 06:16:48;;;;;;;1.20;0.50;;;12.30;99.90;;;;;;5090481;28;20196;-77
2023/01/04 06:19:14;;;;;;;1.10;0.40;;;12.30;99.90;;;;;;5090739;28;20163;-80
2023/01/04 06:21:40;;;;;;;2.03;0.50;;;12.30;99.90;;;;;;5090396;28;20155;-80
2023/01/04 06:24:05;;;;;;;1.10;0.40;;;12.40;99.90;;;;;;5090833;28;20156;-79
2023/01/04 06:26:31;;;;;;;1.30;0.50;;;12.40;99.90;;;;;;5106665;28;20176;-79
2023/01/04 06:28:57;;;;;;;1.70;0.50;;;12.40;99.90;;;;;;5090236;28;20600;-79
2023/01/04 06:31:23;;;;;;;1.52;0.60;;;12.40;99.90;;;;;;5089624;28;20531;-79
2023/01/04 06:33:49;;;;;;;1.10;0.40;;;12.40;99.90;;;;;;5088915;28;20209;-80
2023/01/04 06:36:14;;;;;;;1.60;0.50;;;12.40;99.90;;;;;;5090942;28;20740;-79
2023/01/04 06:38:40;;;;;;;1.30;0.50;;;12.40;99.90;;;;;;5091163;28;20232;-79
2023/01/04 06:41:06;;;;;;;2.90;0.50;;;12.50;99.90;;;;;;5090608;28;20168;-79
2023/01/04 06:43:32;;;;;;;1.17;0.40;;;12.50;99.90;;;;;;5088278;28;20215;-79
2023/01/04 06:45:59;;;;;;;3.20;0.50;;;12.50;99.90;;;;;;5106115;28;20598;-79
2023/01/04 06:48:24;;;;;;;1.70;0.50;;;12.60;99.90;;;;;;5088413;28;20207;-79
2023/01/04 06:50:50;;;;;;;1.60;0.50;;;12.60;99.90;;;;;;5089309;28;20187;-80
2023/01/04 06:53:16;;;;;;;1.30;0.50;;;12.60;99.90;;;;;;5089826;28;20199;-80
2023/01/04 06:55:45;;;;;;;1.00;0.40;;;12.60;99.90;;;;;;5090167;28;20269;-78
2023/01/04 06:58:11;;;;;;;1.50;0.50;;;12.60;99.90;;;;;;5089086;28;20530;-78
2023/01/04 07:00:37;;;;;;;1.00;0.40;;;12.60;99.90;;;;;;5088447;28;20274;-76
2023/01/04 07:03:02;;;;;;;1.10;0.40;;;12.60;99.90;;;;;;5084315;28;20214;-77
2023/01/04 07:05:28;;;;;;;1.10;0.40;;;12.70;99.90;;;;;;5089476;28;20167;-77
2023/01/04 07:07:54;;;;;;;1.10;0.40;;;12.70;99.90;;;;;;5088176;28;20228;-78
2023/01/04 07:10:20;;;;;;;1.17;0.40;;;12.80;99.90;;;;;;5088708;28;20164;-77
2023/01/04 07:12:45;;;;;;;1.10;0.50;;;12.80;99.90;;;;;;5089475;28;20199;-79
2023/01/04 07:15:11;;;;;;;1.10;0.40;;;12.80;99.90;;;;;;5088599;28;20590;-79
2023/01/04 07:17:37;;;;;;;1.30;0.40;;;12.80;99.90;;;;;;5074805;28;20176;-79
2023/01/04 07:20:03;;;;;;;2.07;0.40;;;12.90;99.90;;;;;;5088413;28;20589;-79
2023/01/04 07:22:29;;;;;;;1.30;0.40;;;12.90;99.90;;;;;;5089409;28;20229;-79
2023/01/04 07:24:55;;;;;;;1.23;0.40;;;13.00;99.90;;;;;;5089175;28;20574;-80
2023/01/04 07:27:20;;;;;;;1.10;0.50;;;13.00;99.90;;;;;;5089380;28;20216;-79
2023/01/04 07:29:46;;;;;;;2.07;0.50;;;13.00;99.90;;;;;;5088235;28;20176;-79
2023/01/04 07:32:12;;;;;;;1.93;0.60;;;13.00;99.90;;;;;;5088963;28;20196;-80
2023/01/04 07:34:38;;;;;;;1.30;0.40;;;13.10;99.90;;;;;;5088194;28;20175;-80
2023/01/04 07:37:08;;;;;;;2.00;0.47;;;13.10;99.90;;;;;;5088253;28;20215;-79
2023/01/04 07:39:34;;;;;;;1.37;0.50;;;13.10;99.90;;;;;;5089819;28;20581;-79
2023/01/04 07:42:00;;;;;;;1.40;0.50;;;13.10;99.90;;;;;;5088957;28;20633;-80
2023/01/04 07:44:28;;;;;;;1.47;0.40;;;13.20;99.90;;;;;;5071118;28;21157;-78
2023/01/04 07:46:55;;;;;;;3.13;0.50;;;13.20;99.90;;;;;;5089876;28;20643;-79
2023/01/04 07:49:21;;;;;;;1.10;0.50;;;13.20;99.90;;;;;;5089379;28;20175;-78
2023/01/04 07:51:47;;;;;;;1.97;0.63;;;13.30;99.90;;;;;;5087598;28;20573;-78
2023/01/04 07:54:15;;;;;;;1.37;0.50;;;13.30;99.90;;;;;;5097472;28;20577;-79
2023/01/04 07:56:41;;;;;;;1.40;0.40;;;13.30;99.90;;;;;;5094979;28;20669;-79
2023/01/04 07:59:08;;;;;;;1.20;0.50;;;13.30;99.90;;;;;;5089934;28;21096;-79
2023/01/04 08:01:36;;;;;;;1.20;0.40;;;13.30;99.90;;;;;;5089975;28;20581;-78
2023/01/04 08:04:02;;;;;;;1.30;0.43;;;13.40;99.90;;;;;;5092134;28;20643;-78
2023/01/04 08:06:28;;;;;;;1.30;0.50;;;13.40;99.90;;;;;;5093103;28;20653;-78
2023/01/04 08:08:53;;;;;;;1.10;0.40;;;13.40;99.90;;;;;;5092550;28;20212;-78
2023/01/04 08:11:21;;;;;;;3.13;0.40;;;13.50;99.90;;;;;;5072829;28;20187;-78
2023/01/04 08:13:47;;;;;;;1.27;0.50;;;13.40;99.90;;;;;;5091936;28;20195;-78
2023/01/04 08:16:32;;;;;;;1.40;0.50;;;13.50;99.90;;;;;;5092733;28;20912;-79
2023/01/04 08:19:11;;;;;;;1.10;0.40;;;13.50;99.90;;;;;;5091112;28;20581;-78
2023/01/04 08:21:37;;;;;;;1.33;0.50;;;13.50;99.90;;;;;;5092134;28;20626;-78
2023/01/04 08:24:03;;;;;;;1.60;0.50;;;13.60;99.90;;;;;;5090845;28;21219;-78
2023/01/04 08:26:30;;;;;;;1.20;0.40;;;13.60;99.90;;;;;;5092081;28;20957;-78
2023/01/04 08:28:56;;;;;;;1.07;0.40;;;13.60;99.90;;;;;;5108112;28;20617;-78
2023/01/04 08:31:25;;;;;;;1.50;0.50;;;13.60;99.90;;;;;;5095012;28;21092;-78
2023/01/04 08:33:51;;;;;;;1.40;0.50;;;13.60;99.90;;;;;;5091796;28;20628;-78
2023/01/04 08:36:24;;;;;;;1.90;0.50;;;13.60;99.90;;;;;;5092091;28;20570;-78
2023/01/04 08:38:52;;;;;;;1.77;0.40;;;13.70;99.90;;;;;;5091124;28;20676;-78
2023/01/04 08:41:19;;;;;;;2.20;0.77;;;13.70;99.90;;;;;;5076248;28;20582;-78
2023/01/04 08:43:45;;;;;;;1.10;0.40;;;13.80;99.90;;;;;;5070792;28;21005;-78
2023/01/04 08:46:12;;;;;;;1.93;0.50;;;13.80;99.90;;;;;;5071776;28;20559;-77
2023/01/04 08:48:38;;;;;;;1.30;0.50;;;13.80;99.90;;;;;;5070591;28;20180;-78
2023/01/04 08:51:10;;;;;;;2.13;0.57;;;13.80;99.90;;;;;;5071587;28;20574;-78
2023/01/04 08:53:36;;;;;;;1.20;0.60;;;13.80;99.90;;;;;;5085101;28;20648;-78
2023/01/04 08:56:02;;;;;;;1.47;0.50;;;13.90;99.90;;;;;;5090538;28;20581;-78
2023/01/04 08:58:30;;;;;;;1.20;0.50;;;13.90;99.90;;;;;;5091579;28;20660;-78
2023/01/04 09:01:04;;;;;;;3.97;0.70;;;13.90;99.90;;;;;;5090613;28;20600;-78
2023/01/04 09:03:30;;;;;;;2.73;1.17;;;13.90;99.90;;;;;;5106926;22;20645;-78
2023/01/04 09:06:10;;;;;;;1.13;0.40;;;13.90;99.90;;;;;;5060310;28;20624;-79
2023/01/04 09:08:37;;;;;;;1.40;0.40;;;13.90;99.90;;;;;;5064671;28;20952;-79
2023/01/04 09:11:12;;;;;;;1.07;0.40;;;13.90;99.90;;;;;;5071713;28;20578;-78
2023/01/04 09:13:38;;;;;;;1.20;0.50;;;13.90;99.90;;;;;;5069057;28;20610;-78
2023/01/04 09:16:07;;;;;;;1.10;0.47;;;14.00;99.90;;;;;;5070339;28;20606;-78
2023/01/04 09:18:33;;;;;;;1.43;0.50;;;14.00;99.90;;;;;;5062354;28;20571;-78
2023/01/04 09:21:03;;;;;;;1.47;0.60;;;14.00;99.90;;;;;;5070051;28;20578;-77
2023/01/04 09:23:30;;;;;;;2.13;0.50;;;14.00;99.90;;;;;;5055376;28;20631;-78
2023/01/04 09:25:55;;;;;;;1.20;0.40;;;14.10;99.90;;;;;;5039303;28;20729;-78
2023/01/04 09:28:21;;;;;;;1.13;0.43;;;14.10;99.90;;;;;;5083150;28;20602;-78
2023/01/04 09:30:47;;;;;;;1.50;0.50;;;14.10;99.90;;;;;;5079406;28;20175;-79
2023/01/04 09:33:13;;;;;;;1.43;0.50;;;14.10;99.90;;;;;;5070220;28;20188;-79
2023/01/04 09:35:38;;;;;;;1.50;0.60;;;14.20;99.90;;;;;;5067432;28;20197;-79
2023/01/04 09:38:04;;;;;;;1.30;0.53;;;14.20;99.90;;;;;;5054183;28;20209;-79
2023/01/04 09:40:47;;;;;;;1.20;0.50;;;14.20;99.90;;;;;;5069714;28;20566;-79
2023/01/04 09:43:19;;;;;;;1.57;0.50;;;14.20;99.90;;;;;;5052288;28;20207;-78
2023/01/04 09:45:48;;;;;;;1.70;0.60;;;14.30;99.90;;;;;;5052637;28;20588;-78
2023/01/04 09:48:18;;;;;;;1.37;0.47;;;14.30;99.90;;;;;;5054331;28;20602;-79
2023/01/04 09:51:21;;;;;;;2.30;0.60;;;14.40;99.90;;;;;;5052846;28;20600;-79
2023/01/04 09:54:04;;;;;;;2.63;0.60;;;14.40;99.90;;;;;;5053306;28;20693;-79
2023/01/04 09:56:32;;;;;;;2.30;0.53;;;14.40;99.90;;;;;;5035414;28;20933;-79
2023/01/04 09:59:04;;;;;;;1.87;0.50;;;14.50;99.90;;;;;;5052003;28;20568;-78
2023/01/04 10:01:52;;;;;;;1.20;0.43;;;14.50;99.90;;;;;;5052907;28;20618;-79
2023/01/04 10:04:41;;;;;;;2.33;0.40;;;14.60;99.90;;;;;;5049387;28;20724;-79
2023/01/04 10:07:28;;;;;;;1.10;0.40;;;14.60;99.90;;;;;;5049577;28;20579;-80
2023/01/04 10:09:55;;;;;;;1.93;0.40;;;14.70;99.90;;;;;;5038352;28;20592;-78
2023/01/04 10:12:41;;;;;;;2.07;0.60;;;14.70;99.90;;;;;;5049481;28;20587;-79
2023/01/04 10:15:38;;;;;;;1.13;0.47;;;14.70;99.90;;;;;;5048860;28;20650;-79
2023/01/04 10:18:22;;;;;;;1.50;0.60;;;14.70;99.90;;;;;;5049378;28;20640;-79
2023/01/04 10:21:10;;;;;;;1.97;0.50;;;14.70;99.90;;;;;;5048629;28;20607;-79
2023/01/04 10:23:50;;;;;;;2.63;0.50;;;14.70;99.90;;;;;;5047699;28;20722;-79
2023/01/04 10:26:25;;;;;;;1.97;0.50;;;14.70;99.90;;;;;;5048666;28;20575;-79
2023/01/04 10:29:25;;;;;;;1.57;0.50;;;14.80;99.90;;;;;;5048847;28;20583;-80
2023/01/04 10:32:01;;;;;;;1.10;0.40;;;14.70;99.90;;;;;;5048218;28;20576;-81
2023/01/04 10:34:32;;;;;;;1.73;0.60;;;14.80;99.90;;;;;;5048170;28;20595;-81
2023/01/04 10:37:12;;;;;;;1.40;0.50;;;14.80;99.90;;;;;;5031700;28;20583;-80
2023/01/04 10:39:39;;;;;;;1.40;0.40;;;14.70;99.90;;;;;;5048741;28;20587;-80
2023/01/04 10:42:30;;;;;;;1.63;0.50;;;14.70;99.90;;;;;;5047911;28;21131;-80
2023/01/04 10:45:05;;;;;;;1.43;0.50;;;14.60;99.90;;;;;;5031237;28;20757;-80
2023/01/04 10:48:05;;;;;;;1.17;0.50;;;14.60;99.90;;;;;;5052419;28;20621;-80
2023/01/04 10:50:40;;;;;;;1.40;0.50;;;14.50;99.90;;;;;;5049151;28;20587;-80
2023/01/04 10:53:16;;;;;;;1.20;0.50;;;14.40;99.90;;;;;;5046995;28;20579;-80
2023/01/04 10:56:19;;;;;;;1.73;0.60;;;14.30;99.90;;;;;;5048411;28;20841;-81
2023/01/04 10:58:55;;;;;;;2.67;0.63;;;14.30;99.90;;;;;;5061774;28;20586;-80
2023/01/04 11:01:27;;;;;;;2.03;0.50;;;14.20;99.90;;;;;;5049358;28;20674;-80
2023/01/04 11:04:18;;;;;;;2.77;0.50;;;14.10;99.90;;;;;;5046944;28;20647;-80
2023/01/04 11:06:54;;;;;;;4.22;1.48;;;14.10;99.90;;;;;;5049422;28;20618;-80
2023/01/04 11:09:29;;;;;;;1.93;0.50;;;14.10;99.90;;;;;;5048974;28;20157;-80
2023/01/04 11:11:56;;;;;;;1.30;0.50;;;14.10;99.90;;;;;;5047618;28;20563;-80
2023/01/04 11:14:24;;;;;;;1.30;0.50;;;14.00;99.90;;;;;;5048258;28;20687;-80
2023/01/04 11:16:55;;;;;;;2.17;0.50;;;14.00;99.90;;;;;;5049281;28;20568;-81
2023/01/04 11:19:21;;;;;;;1.00;0.40;;;13.90;99.90;;;;;;5048312;28;20622;-81
2023/01/04 11:21:55;;;;;;;1.10;0.40;;;13.80;99.90;;;;;;5048784;28;20576;-80
2023/01/04 11:24:22;;;;;;;1.80;0.60;;;13.80;99.90;;;;;;5050136;28;20614;-80
2023/01/04 11:26:49;;;;;;;1.67;0.50;;;13.80;99.90;;;;;;5064331;28;20622;-80
2023/01/04 11:29:54;;;;;;;1.83;0.50;;;13.80;99.90;;;;;;5047694;28;20576;-80
2023/01/04 11:32:46;;;;;;;1.10;0.40;;;13.80;99.90;;;;;;5024616;28;20580;-79
2023/01/04 11:35:11;;;;;;;1.20;0.53;;;13.70;99.90;;;;;;5050125;28;21216;-80
2023/01/04 11:37:41;;;;;;;1.20;0.50;;;13.70;99.90;;;;;;5063438;28;20571;-80
2023/01/04 11:40:17;;;;;;;1.20;0.40;;;13.70;99.90;;;;;;5055115;28;20586;-80
2023/01/04 11:42:52;;;;;;;3.23;0.50;;;13.70;99.90;;;;;;5054219;28;21211;-79
2023/01/04 11:45:18;;;;;;;2.07;0.40;;;13.80;99.90;;;;;;5072373;28;20621;-80
2023/01/04 11:47:55;;;;;;;1.20;0.40;;;13.80;99.90;;;;;;5072377;28;21307;-80
2023/01/04 11:50:37;;;;;;;2.30;0.70;;;13.80;99.90;;;;;;5073080;28;20577;-81
2023/01/04 11:53:23;;;;;;;1.97;0.50;;;13.80;99.90;;;;;;5070604;28;20719;-80
2023/01/04 11:55:49;;;;;;;1.20;0.40;;;13.90;99.90;;;;;;5055097;28;21091;-79
2023/01/04 11:58:17;;;;;;;1.60;0.50;;;13.90;99.90;;;;;;5070773;28;21176;-80
2023/01/04 12:00:52;;;;;;;1.50;0.60;;;14.00;99.90;;;;;;5076712;28;21118;-79
2023/01/04 12:03:25;;;;;;;1.90;0.60;;;14.00;99.90;;;;;;5071550;28;21223;-79
2023/01/04 12:05:51;;;;;;;1.40;0.50;;;14.10;99.90;;;;;;5054693;28;20651;-78
2023/01/04 12:08:29;;;;;;;2.10;0.53;;;14.10;99.90;;;;;;5054542;28;21226;-79
2023/01/04 12:10:57;;;;;;;1.47;0.60;;;14.10;99.90;;;;;;5035947;28;20255;-79
2023/01/04 12:13:23;;;;;;;1.60;0.63;;;14.10;99.90;;;;;;5051138;28;21152;-79
2023/01/04 12:16:04;;;;;;;4.70;0.70;;;14.20;99.90;;;;;;5057284;28;20689;-80
2023/01/04 12:18:36;;;;;;;1.43;0.63;;;14.30;99.90;;;;;;5039102;28;20627;-80
2023/01/04 12:21:02;;;;;;;1.40;0.50;;;14.30;99.90;;;;;;5070826;28;20660;-79
2023/01/04 12:23:29;;;;;;;1.60;0.50;;;14.30;99.90;;;;;;5053619;28;21153;-80
2023/01/04 12:25:55;;;;;;;1.73;0.73;;;14.40;99.90;;;;;;5071938;28;20566;-80
2023/01/04 12:28:39;;;;;;;2.10;0.83;;;14.40;99.90;;;;;;5072095;28;20161;-80
2023/01/04 12:31:20;;;;;;;2.30;0.90;;;14.40;99.90;;;;;;5070269;28;20574;-79
2023/01/04 12:33:46;;;;;;;2.07;0.80;;;14.50;99.90;;;;;;5071584;28;20656;-79
2023/01/04 12:36:14;;;;;;;1.30;0.50;;;14.50;99.90;;;;;;5053513;28;20578;-79
2023/01/04 12:39:22;;;;;;;2.03;0.50;;;14.60;99.90;;;;;;5076261;28;21001;-79
2023/01/04 12:42:00;;;;;;;1.03;0.40;;;14.60;99.90;;;;;;5064427;28;20589;-80
2023/01/04 12:44:36;;;;;;;1.00;0.40;;;14.70;99.90;;;;;;5053431;28;20701;-80
2023/01/04 12:49:50;;;;;;;1.00;0.40;;;14.80;99.90;;;;;;5072081;28;20586;-81
2023/01/04 12:52:17;;;;;;;1.40;0.80;;;14.90;99.90;;;;;;5053449;28;20591;-80
2023/01/04 12:55:00;;;;;;;1.43;0.50;;;14.90;99.90;;;;;;5053080;28;21169;-80
2023/01/04 12:57:37;;;;;;;1.00;0.30;;;14.90;99.90;;;;;;5031346;28;21197;-81
2023/01/04 13:00:08;;;;;;;1.10;0.40;;;15.00;99.90;;;;;;5013859;28;20577;-81
2023/01/04 13:03:18;;;;;;;1.00;0.40;;;15.10;99.90;;;;;;5015008;28;20658;-80
2023/01/04 13:05:52;;;;;;;1.30;0.47;;;15.10;99.90;;;;;;5014033;28;20634;-80
2023/01/04 13:08:18;;;;;;;1.73;0.50;;;15.20;99.90;;;;;;5051179;28;20587;-80
2023/01/04 13:10:55;;;;;;;1.17;0.40;;;15.20;99.90;;;;;;5034454;28;20587;-80
2023/01/04 13:13:29;;;;;;;1.40;0.63;;;15.20;99.90;;;;;;5050967;28;20172;-79
2023/01/04 13:16:01;;;;;;;1.50;0.67;;;15.20;99.90;;;;;;5053859;28;20571;-79
2023/01/04 13:18:59;;;;;;;1.30;0.60;;;15.20;99.90;;;;;;5051614;28;20568;-78
2023/01/04 13:21:32;;;;;;;1.20;0.50;;;15.30;99.90;;;;;;5010772;28;20599;-78
2023/01/04 13:24:31;;;;;;;1.17;0.40;;;15.30;99.90;;;;;;5032683;28;20646;-78
2023/01/04 13:27:05;;;;;;;1.47;0.40;;;15.30;99.90;;;;;;5016746;28;20683;-79
2023/01/04 13:29:33;;;;;;;1.00;0.40;;;15.30;99.90;;;;;;5030849;28;20667;-80
2023/01/04 13:32:02;;;;;;;1.10;0.40;;;15.40;99.90;;;;;;5030963;28;20603;-80
2023/01/04 13:34:52;;;;;;;1.50;0.90;;;15.40;99.90;;;;;;5030492;28;21155;-80
2023/01/04 13:37:27;;;;;;;1.10;0.40;;;15.40;99.90;;;;;;5029617;28;20619;-80
2023/01/04 13:40:25;;;;;;;1.20;0.40;;;15.40;99.90;;;;;;5031085;28;21185;-80
2023/01/04 13:43:15;;;;;;;1.30;0.47;;;15.40;99.90;;;;;;5030572;28;21082;-80
2023/01/04 13:46:00;;;;;;;1.20;0.50;;;15.40;99.90;;;;;;5012651;28;20677;-79
2023/01/04 13:48:33;;;;;;;1.30;0.60;;;15.40;99.90;;;;;;5029745;28;21061;-80
2023/01/04 13:51:03;;;;;;;1.47;0.60;;;15.40;99.90;;;;;;5013081;28;20580;-80
2023/01/04 13:53:31;;;;;;;1.30;0.40;;;15.40;99.90;;;;;;5042659;28;20624;-81
2023/01/04 13:56:01;;;;;;;1.30;0.50;;;15.50;99.90;;;;;;5048459;28;20630;-80
2023/01/04 13:58:30;;;;;;;1.10;0.40;;;15.40;99.90;;;;;;5035980;28;20587;-79
2023/01/04 14:01:17;;;;;;;1.00;0.40;;;15.50;99.90;;;;;;5034539;28;20579;-80